Aviation Digital Data Service (ADDS)

Output produced by METARs form (1531 UTC 23 June 2018)
found at http://aviationweather.gov/adds/metars/
 
KMCB 231331Z 2314/2412 25007KT P6SM OVC015 
     FM231500 22009KT P6SM SCT025 BKN035 
     TEMPO 2315/2316 BKN025 
     FM240000 19006KT P6SM FEW040 FEW250